Share

Hurghada, Egyiptom

2014 Április 25 01:20 AM (EET időzóna) (GMT +0200)
Hurghada International (HEGN) Elev 46 ft | 27.18 °N, 33.80 °E | Change Station

Current weather conditions updated 20 minutes ago

Mostly Cloudy
Jórészt felhős
77 °F
Hőérzet 77 °F
N
6
Szél: változó Szél: from délkeleti
Napkelte 5:11 AM
Napnyugta 6:14 PM
Hold Fogyó holdsarló

Előrejelzés: ma sokkal melegebb lesz mint tegnap.

Légnyomás 29.71 hvlyk.
Látótávolság 6.2 mérföld
Felhők Kevés 2500 ft
Jórészt felhős 10000 ft
Harmatpont 70 °F
Páratartalom 78%
Rainfall 0.00 hvlyk.
Hóréteg vastagsága Not available.
UV 0 out of 16
Pollen Not available.
A levegő minősége Not available.
Flu Activity Not available.
METAR HEGN 242300Z 11005KT 9999 FEW025 BKN100 25/21 Q1006 NOSIG

More Conditions Fewer Conditions

Légnyomás 29.71 hvlyk.
Látótávolság 6.2 mérföld
Felhők Kevés 2500 ft
Jórészt felhős 10000 ft
Harmatpont 70 °F
Páratartalom 78%
Rainfall 0.00 hvlyk.
Hóréteg vastagsága Not available.
UV 0 out of 16
Pollen Not available.
A levegő minősége Not available.
Flu Activity Not available.
METAR HEGN 242300Z 11005KT 9999 FEW025 BKN100 25/21 Q1006 NOSIG

More Conditions Fewer Conditions

10-Day Weather Forecast

Almanac

Csillagászat

Apr. 25, 2014 Kel Nyugszik
Tényleges idő 5:11 AM EET 6:14 PM EET
Civil alkony 4:47 AM EET 6:39 PM EET
Tengerészeti alkony 4:18 AM EET 7:07 PM EET
Csillagászati alkony 3:49 AM EET 7:37 PM EET
Hold 2:23 AM EET (4/25) 2:35 PM EET (4/25)
Látható fény időtartama 13h 51m
A nap hossza
13h 03m
Tomorrow will be 1m 26s longer.
Fogyó holdsarló, 21% of the Moon is Illuminated
Ápr 24
Fogyó holdsarló
Ápr 29
Új
May 6
első negyed
May 14
telihold
May 21
utolsó negyed

Yesterday's Extremes

Country Highs Country Lows

Community

  • Jone Runs Falls
    Jone Runs Falls
  • Easter in Shenandoah National Park
    Easter in Shenandoah National Park
  • Sunset at Apalachicola Bay, Florida
    Sunset at Apalachicola Bay, Florida
  • Clouds mov'n in
    Clouds mov'n in
  • Stacked
    Stacked

WunderPhotos

Upload Photos

1,704,737 Fotók feltöltve.

Nearby

A levegő minősége

Not available.

Hóréteg vastagsága

Not available.

Coastal Water Temperatures

Hely Hőmérséklet
No Stations Reporting

Earthquake Activity

város Distance Mag. Time & Date
No recent earthquake activity has been reported nearby.
Minimum magnitude displayed is 2.5.

Közeli meteorológiai állomások

There are no personal weather stations in this area.

What do you think?

We're not finished. Please let us know what you like, what you don't like, and what you are still missing.